sensor_id;sensor_type;location;lat;lon;timestamp;pressure;altitude;pressure_sealevel;temperature;humidity
5988;BME280;3021;51.000;6.980;2023-05-13T00:01:21;67843.72;;;13.85;100.00
5988;BME280;3021;51.000;6.980;2023-05-13T00:03:46;67837.78;;;13.77;100.00
5988;BME280;3021;51.000;6.980;2023-05-13T00:06:11;67828.09;;;13.71;100.00
5988;BME280;3021;51.000;6.980;2023-05-13T00:08:37;67825.19;;;13.69;100.00
5988;BME280;3021;51.000;6.980;2023-05-13T00:11:02;67821.72;;;13.65;100.00
5988;BME280;3021;51.000;6.980;2023-05-13T00:13:27;67824.59;;;13.68;100.00
5988;BME280;3021;51.000;6.980;2023-05-13T00:15:53;67820.53;;;13.64;100.00
5988;BME280;3021;51.000;6.980;2023-05-13T00:18:18;67817.06;;;13.61;100.00
5988;BME280;3021;51.000;6.980;2023-05-13T00:20:44;67812.44;;;13.57;100.00
5988;BME280;3021;51.000;6.980;2023-05-13T00:23:09;67810.13;;;13.55;100.00
5988;BME280;3021;51.000;6.980;2023-05-13T00:25:35;67802.44;;;13.46;100.00
5988;BME280;3021;51.000;6.980;2023-05-13T00:28:01;67790.44;;;13.38;100.00
5988;BME280;3021;51.000;6.980;2023-05-13T00:30:26;67787.38;;;13.32;100.00
5988;BME280;3021;51.000;6.980;2023-05-13T00:32:52;67781.00;;;13.27;100.00
5988;BME280;3021;51.000;6.980;2023-05-13T00:35:17;67771.31;;;13.21;100.00
5988;BME280;3021;51.000;6.980;2023-05-13T00:37:43;67763.50;;;13.09;100.00
5988;BME280;3021;51.000;6.980;2023-05-13T00:40:18;67757.25;;;13.06;100.00
5988;BME280;3021;51.000;6.980;2023-05-13T00:42:44;67758.41;;;13.07;100.00
5988;BME280;3021;51.000;6.980;2023-05-13T00:45:11;67753.22;;;13.02;100.00
5988;BME280;3021;51.000;6.980;2023-05-13T00:47:38;67750.75;;;12.98;100.00
5988;BME280;3021;51.000;6.980;2023-05-13T00:50:05;67733.66;;;12.87;100.00
5988;BME280;3021;51.000;6.980;2023-05-13T00:52:30;67725.53;;;12.80;100.00
5988;BME280;3021;51.000;6.980;2023-05-13T00:54:57;67726.72;;;12.81;100.00
5988;BME280;3021;51.000;6.980;2023-05-13T00:57:22;67726.56;;;12.78;100.00
5988;BME280;3021;51.000;6.980;2023-05-13T00:59:47;67728.75;;;12.78;100.00
5988;BME280;3021;51.000;6.980;2023-05-13T01:02:33;67727.56;;;12.77;100.00
5988;BME280;3021;51.000;6.980;2023-05-13T01:11:01;67723.25;;;12.78;100.00
5988;BME280;3021;51.000;6.980;2023-05-13T01:13:32;67717.28;;;12.70;100.00
5988;BME280;3021;51.000;6.980;2023-05-13T01:16:15;67713.81;;;12.67;100.00
5988;BME280;3021;51.000;6.980;2023-05-13T01:18:45;67710.94;;;12.65;100.00
5988;BME280;3021;51.000;6.980;2023-05-13T01:21:13;67701.84;;;12.59;100.00
5988;BME280;3021;51.000;6.980;2023-05-13T01:23:38;67704.13;;;12.61;100.00
5988;BME280;3021;51.000;6.980;2023-05-13T01:26:03;67699.34;;;12.54;100.00
5988;BME280;3021;51.000;6.980;2023-05-13T01:28:29;67691.41;;;12.50;100.00
5988;BME280;3021;51.000;6.980;2023-05-13T01:30:55;67693.00;;;12.49;100.00
5988;BME280;3021;51.000;6.980;2023-05-13T01:33:22;67698.22;;;12.53;100.00
5988;BME280;3021;51.000;6.980;2023-05-13T01:35:47;67698.22;;;12.53;100.00
5988;BME280;3021;51.000;6.980;2023-05-13T01:38:13;67690.84;;;12.49;100.00
5988;BME280;3021;51.000;6.980;2023-05-13T01:40:39;67683.88;;;12.43;100.00
5988;BME280;3021;51.000;6.980;2023-05-13T01:43:06;67674.03;;;12.34;100.00
5988;BME280;3021;51.000;6.980;2023-05-13T01:45:31;67666.53;;;12.27;100.00
5988;BME280;3021;51.000;6.980;2023-05-13T01:47:58;67660.72;;;12.22;100.00
5988;BME280;3021;51.000;6.980;2023-05-13T01:50:23;67656.66;;;12.19;100.00
5988;BME280;3021;51.000;6.980;2023-05-13T01:52:48;67657.84;;;12.20;100.00
5988;BME280;3021;51.000;6.980;2023-05-13T01:55:14;67662.91;;;12.22;100.00
5988;BME280;3021;51.000;6.980;2023-05-13T01:57:39;67655.53;;;12.18;100.00
5988;BME280;3021;51.000;6.980;2023-05-13T02:00:05;67656.53;;;12.16;100.00
5988;BME280;3021;51.000;6.980;2023-05-13T02:02:31;67653.66;;;12.14;100.00
5988;BME280;3021;51.000;6.980;2023-05-13T02:04:56;67650.91;;;12.14;100.00
5988;BME280;3021;51.000;6.980;2023-05-13T02:07:21;67651.91;;;12.12;100.00
5988;BME280;3021;51.000;6.980;2023-05-13T02:09:47;67657.56;;;12.15;100.00
5988;BME280;3021;51.000;6.980;2023-05-13T02:12:12;67651.31;;;12.12;100.00
5988;BME280;3021;51.000;6.980;2023-05-13T02:14:37;67648.44;;;12.09;100.00
5988;BME280;3021;51.000;6.980;2023-05-13T02:17:03;67651.31;;;12.12;100.00
5988;BME280;3021;51.000;6.980;2023-05-13T02:19:28;67649.72;;;12.13;100.00
5988;BME280;3021;51.000;6.980;2023-05-13T02:21:54;67654.50;;;12.19;100.00
5988;BME280;3021;51.000;6.980;2023-05-13T02:24:20;67662.47;;;12.24;100.00
5988;BME280;3021;51.000;6.980;2023-05-13T02:26:45;67672.16;;;12.30;100.00
5988;BME280;3021;51.000;6.980;2023-05-13T02:29:10;67672.75;;;12.31;100.00
5988;BME280;3021;51.000;6.980;2023-05-13T02:31:36;67671.28;;;12.34;100.00
5988;BME280;3021;51.000;6.980;2023-05-13T02:34:02;67672.75;;;12.31;100.00
5988;BME280;3021;51.000;6.980;2023-05-13T02:36:27;67669.28;;;12.27;100.00
5988;BME280;3021;51.000;6.980;2023-05-13T02:38:52;67669.28;;;12.27;100.00
5988;BME280;3021;51.000;6.980;2023-05-13T02:41:18;67665.78;;;12.24;100.00
5988;BME280;3021;51.000;6.980;2023-05-13T02:43:43;67654.38;;;12.17;100.00
5988;BME280;3021;51.000;6.980;2023-05-13T02:46:08;67655.38;;;12.15;100.00
5988;BME280;3021;51.000;6.980;2023-05-13T02:48:34;67654.94;;;12.17;100.00
5988;BME280;3021;51.000;6.980;2023-05-13T02:50:59;67658.84;;;12.18;100.00
5988;BME280;3021;51.000;6.980;2023-05-13T02:53:24;67659.41;;;12.19;100.00
5988;BME280;3021;51.000;6.980;2023-05-13T02:55:50;67658.28;;;12.18;100.00
5988;BME280;3021;51.000;6.980;2023-05-13T02:58:16;67654.22;;;12.14;100.00
5988;BME280;3021;51.000;6.980;2023-05-13T03:00:41;67649.59;;;12.10;100.00
5988;BME280;3021;51.000;6.980;2023-05-13T03:03:07;67651.31;;;12.12;100.00
5988;BME280;3021;51.000;6.980;2023-05-13T03:05:32;67645.09;;;12.08;100.00
5988;BME280;3021;51.000;6.980;2023-05-13T03:07:58;67643.97;;;12.07;100.00
5988;BME280;3021;51.000;6.980;2023-05-13T03:10:23;67638.16;;;12.02;100.00
5988;BME280;3021;51.000;6.980;2023-05-13T03:12:48;67634.09;;;11.99;100.00
5988;BME280;3021;51.000;6.980;2023-05-13T03:15:15;67631.66;;;11.94;100.00
5988;BME280;3021;51.000;6.980;2023-05-13T03:17:40;67630.47;;;11.93;100.00
5988;BME280;3021;51.000;6.980;2023-05-13T03:20:06;67628.72;;;11.91;100.00
5988;BME280;3021;51.000;6.980;2023-05-13T03:22:32;67627.59;;;11.90;100.00
5988;BME280;3021;51.000;6.980;2023-05-13T03:24:57;67632.81;;;11.95;100.00
5988;BME280;3021;51.000;6.980;2023-05-13T03:27:23;67632.81;;;11.95;100.00
5988;BME280;3021;51.000;6.980;2023-05-13T03:29:48;67636.28;;;11.98;100.00
5988;BME280;3021;51.000;6.980;2023-05-13T03:32:13;67639.19;;;12.01;100.00
5988;BME280;3021;51.000;6.980;2023-05-13T03:34:39;67642.06;;;12.03;100.00
5988;BME280;3021;51.000;6.980;2023-05-13T03:37:04;67648.88;;;12.07;100.00
5988;BME280;3021;51.000;6.980;2023-05-13T03:39:29;67649.59;;;12.10;100.00
5988;BME280;3021;51.000;6.980;2023-05-13T03:41:55;67654.22;;;12.14;100.00
5988;BME280;3021;51.000;6.980;2023-05-13T03:44:20;67652.06;;;12.15;100.00
5988;BME280;3021;51.000;6.980;2023-05-13T03:46:46;67648.56;;;12.12;100.00
5988;BME280;3021;51.000;6.980;2023-05-13T03:49:13;67650.75;;;12.11;100.00
5988;BME280;3021;51.000;6.980;2023-05-13T03:51:39;67643.53;;;12.09;100.00
5988;BME280;3021;51.000;6.980;2023-05-13T03:54:04;67644.53;;;12.08;100.00
5988;BME280;3021;51.000;6.980;2023-05-13T03:56:30;67639.34;;;12.03;100.00
5988;BME280;3021;51.000;6.980;2023-05-13T03:58:55;67637.44;;;11.99;100.00
5988;BME280;3021;51.000;6.980;2023-05-13T04:01:20;67632.25;;;11.95;100.00
5988;BME280;3021;51.000;6.980;2023-05-13T04:03:46;67629.50;;;11.95;100.00
5988;BME280;3021;51.000;6.980;2023-05-13T04:06:12;67631.66;;;11.94;100.00
5988;BME280;3021;51.000;6.980;2023-05-13T04:08:38;67627.59;;;11.90;100.00
5988;BME280;3021;51.000;6.980;2023-05-13T04:11:04;67624.69;;;11.88;100.00
5988;BME280;3021;51.000;6.980;2023-05-13T04:13:29;67617.16;;;11.81;100.00
5988;BME280;3021;51.000;6.980;2023-05-13T04:15:54;67623.97;;;11.85;100.00
5988;BME280;3021;51.000;6.980;2023-05-13T04:18:20;67625.84;;;11.89;100.00
5988;BME280;3021;51.000;6.980;2023-05-13T04:20:45;67622.53;;;11.88;100.00
5988;BME280;3021;51.000;6.980;2023-05-13T04:23:11;67626.44;;;11.89;100.00
5988;BME280;3021;51.000;6.980;2023-05-13T04:25:36;67635.13;;;11.97;100.00
5988;BME280;3021;51.000;6.980;2023-05-13T04:28:01;67644.94;;;12.06;100.00
5988;BME280;3021;51.000;6.980;2023-05-13T04:30:27;67651.31;;;12.12;100.00
5988;BME280;3021;51.000;6.980;2023-05-13T04:32:52;67669.28;;;12.27;100.00
5988;BME280;3021;51.000;6.980;2023-05-13T04:35:18;67675.91;;;12.38;100.00
5988;BME280;3021;51.000;6.980;2023-05-13T04:37:43;67694.88;;;12.53;100.00
5988;BME280;3021;51.000;6.980;2023-05-13T04:40:09;67709.19;;;12.63;100.00
5988;BME280;3021;51.000;6.980;2023-05-13T04:42:35;67722.66;;;12.77;100.00
5988;BME280;3021;51.000;6.980;2023-05-13T04:45:00;67743.38;;;12.93;100.00
5988;BME280;3021;51.000;6.980;2023-05-13T04:47:25;67754.50;;;13.06;100.00
5988;BME280;3021;51.000;6.980;2023-05-13T04:49:51;67780.44;;;13.26;100.00
5988;BME280;3021;51.000;6.980;2023-05-13T04:52:16;67809.56;;;13.55;100.00
5988;BME280;3021;51.000;6.980;2023-05-13T04:54:41;67841.84;;;13.81;100.00
5988;BME280;3021;51.000;6.980;2023-05-13T04:57:07;67840.81;;;13.82;100.00
5988;BME280;3021;51.000;6.980;2023-05-13T04:59:32;67844.31;;;13.86;100.00
5988;BME280;3021;51.000;6.980;2023-05-13T05:01:58;67856.03;;;13.98;100.00
5988;BME280;3021;51.000;6.980;2023-05-13T05:04:24;67899.94;;;14.35;100.00
5988;BME280;3021;51.000;6.980;2023-05-13T05:06:49;67940.53;;;14.71;100.00
5988;BME280;3021;51.000;6.980;2023-05-13T05:09:15;67963.16;;;14.91;100.00
5988;BME280;3021;51.000;6.980;2023-05-13T05:11:40;68003.19;;;15.27;100.00
5988;BME280;3021;51.000;6.980;2023-05-13T05:14:05;68207.56;;;17.08;100.00
5988;BME280;3021;51.000;6.980;2023-05-13T05:16:31;68501.25;;;19.68;100.00
5988;BME280;3021;51.000;6.980;2023-05-13T05:18:56;68731.56;;;21.74;100.00
5988;BME280;3021;51.000;6.980;2023-05-13T05:21:22;68901.44;;;23.26;100.00
5988;BME280;3021;51.000;6.980;2023-05-13T05:23:47;69057.38;;;24.64;100.00
5988;BME280;3021;51.000;6.980;2023-05-13T05:26:13;69076.53;;;24.78;100.00
5988;BME280;3021;51.000;6.980;2023-05-13T05:28:41;69165.50;;;25.59;100.00
5988;BME280;3021;51.000;6.980;2023-05-13T05:31:07;69243.19;;;26.25;100.00
5988;BME280;3021;51.000;6.980;2023-05-13T05:33:34;68977.34;;;23.93;100.00
5988;BME280;3021;51.000;6.980;2023-05-13T05:35:59;68929.47;;;23.51;100.00
5988;BME280;3021;51.000;6.980;2023-05-13T05:38:24;69061.47;;;24.67;100.00
5988;BME280;3021;51.000;6.980;2023-05-13T05:40:50;69156.03;;;25.48;100.00
5988;BME280;3021;51.000;6.980;2023-05-13T05:43:15;69277.22;;;26.58;100.00
5988;BME280;3021;51.000;6.980;2023-05-13T05:45:41;69352.72;;;27.24;100.00
5988;BME280;3021;51.000;6.980;2023-05-13T05:48:06;69429.91;;;27.89;100.00
5988;BME280;3021;51.000;6.980;2023-05-13T05:50:32;69234.53;;;26.20;100.00
5988;BME280;3021;51.000;6.980;2023-05-13T05:52:58;69154.75;;;25.45;100.00
5988;BME280;3021;51.000;6.980;2023-05-13T05:55:25;69187.16;;;25.78;100.00
5988;BME280;3021;51.000;6.980;2023-05-13T05:57:51;69152.53;;;25.45;100.00
5988;BME280;3021;51.000;6.980;2023-05-13T06:00:17;69208.66;;;25.95;100.00
5988;BME280;3021;51.000;6.980;2023-05-13T06:02:43;69314.78;;;26.93;100.00
5988;BME280;3021;51.000;6.980;2023-05-13T06:05:08;69445.72;;;28.03;100.00
5988;BME280;3021;51.000;6.980;2023-05-13T06:07:34;69572.97;;;29.18;100.00
5988;BME280;3021;51.000;6.980;2023-05-13T06:09:59;69660.91;;;29.95;100.00
5988;BME280;3021;51.000;6.980;2023-05-13T06:12:25;69822.97;;;31.40;100.00
5988;BME280;3021;51.000;6.980;2023-05-13T06:14:50;69923.84;;;32.26;100.00
5988;BME280;3021;51.000;6.980;2023-05-13T06:17:16;69879.13;;;31.84;100.00
5988;BME280;3021;51.000;6.980;2023-05-13T06:19:41;69908.56;;;32.12;100.00
5988;BME280;3021;51.000;6.980;2023-05-13T06:22:07;69673.25;;;30.06;100.00
5988;BME280;3021;51.000;6.980;2023-05-13T06:24:33;69405.91;;;27.68;100.00
5988;BME280;3021;51.000;6.980;2023-05-13T06:26:58;69345.00;;;27.15;100.00
5988;BME280;3021;51.000;6.980;2023-05-13T06:29:24;69387.28;;;27.54;100.00
5988;BME280;3021;51.000;6.980;2023-05-13T06:31:49;69633.25;;;29.68;100.00
5988;BME280;3021;51.000;6.980;2023-05-13T06:34:14;70017.25;;;33.07;100.00
5988;BME280;3021;51.000;6.980;2023-05-13T06:36:41;70027.84;;;33.17;100.00
5988;BME280;3021;51.000;6.980;2023-05-13T06:39:07;69908.56;;;32.12;100.00
5988;BME280;3021;51.000;6.980;2023-05-13T06:41:33;69591.13;;;29.34;100.00
5988;BME280;3021;51.000;6.980;2023-05-13T06:43:58;69258.88;;;26.36;100.00
5988;BME280;3021;51.000;6.980;2023-05-13T06:46:23;69081.09;;;24.80;100.00
5988;BME280;3021;51.000;6.980;2023-05-13T06:48:49;68975.38;;;23.87;100.00
5988;BME280;3021;51.000;6.980;2023-05-13T06:51:16;68882.75;;;23.10;100.00
5988;BME280;3021;51.000;6.980;2023-05-13T06:53:41;68848.22;;;22.77;100.00
5988;BME280;3021;51.000;6.980;2023-05-13T06:56:07;68823.59;;;22.53;100.00
5988;BME280;3021;51.000;6.980;2023-05-13T06:58:32;68831.31;;;22.62;100.00
5988;BME280;3021;51.000;6.980;2023-05-13T07:00:57;68818.47;;;22.51;100.00
5988;BME280;3021;51.000;6.980;2023-05-13T07:03:23;68748.91;;;21.87;100.00
5988;BME280;3021;51.000;6.980;2023-05-13T07:05:48;68692.47;;;21.39;100.00
5988;BME280;3021;51.000;6.980;2023-05-13T07:08:13;68670.91;;;21.20;100.00
5988;BME280;3021;51.000;6.980;2023-05-13T07:10:41;68645.16;;;20.95;100.00
5988;BME280;3021;51.000;6.980;2023-05-13T07:13:07;68609.13;;;20.66;100.00
5988;BME280;3021;51.000;6.980;2023-05-13T07:15:32;68626.63;;;20.81;100.00
5988;BME280;3021;51.000;6.980;2023-05-13T07:17:58;68661.59;;;21.12;100.00
5988;BME280;3021;51.000;6.980;2023-05-13T07:20:23;68650.97;;;21.00;100.00
5988;BME280;3021;51.000;6.980;2023-05-13T07:22:50;68673.25;;;21.22;100.00
5988;BME280;3021;51.000;6.980;2023-05-13T07:25:17;68691.31;;;21.38;100.00
5988;BME280;3021;51.000;6.980;2023-05-13T07:27:43;68713.94;;;21.56;100.00
5988;BME280;3021;51.000;6.980;2023-05-13T07:30:10;68727.47;;;21.70;100.00
5988;BME280;3021;51.000;6.980;2023-05-13T07:32:35;68775.84;;;22.13;100.00
5988;BME280;3021;51.000;6.980;2023-05-13T07:35:02;68827.78;;;22.59;100.00
5988;BME280;3021;51.000;6.980;2023-05-13T07:37:27;68835.38;;;22.66;100.00
5988;BME280;3021;51.000;6.980;2023-05-13T07:39:53;68839.78;;;22.65;100.00
5988;BME280;3021;51.000;6.980;2023-05-13T07:42:18;68799.06;;;22.31;100.00
5988;BME280;3021;51.000;6.980;2023-05-13T07:44:43;68748.91;;;21.87;100.00
5988;BME280;3021;51.000;6.980;2023-05-13T07:47:09;68713.59;;;21.61;100.00
5988;BME280;3021;51.000;6.980;2023-05-13T07:49:34;68684.75;;;21.30;100.00
5988;BME280;3021;51.000;6.980;2023-05-13T07:52:00;68670.31;;;21.20;100.00
5988;BME280;3021;51.000;6.980;2023-05-13T07:54:25;68692.47;;;21.39;100.00
5988;BME280;3021;51.000;6.980;2023-05-13T07:56:50;68693.06;;;21.40;100.00
5988;BME280;3021;51.000;6.980;2023-05-13T07:59:17;68690.03;;;21.35;100.00
5988;BME280;3021;51.000;6.980;2023-05-13T08:01:42;68713.94;;;21.56;100.00
5988;BME280;3021;51.000;6.980;2023-05-13T08:04:07;68741.94;;;21.81;100.00
5988;BME280;3021;51.000;6.980;2023-05-13T08:06:33;68723.97;;;21.67;100.00
5988;BME280;3021;51.000;6.980;2023-05-13T08:08:58;68750.66;;;21.88;100.00
5988;BME280;3021;51.000;6.980;2023-05-13T08:11:23;68860.47;;;22.88;100.00
5988;BME280;3021;51.000;6.980;2023-05-13T08:13:49;68963.69;;;23.76;100.00
5988;BME280;3021;51.000;6.980;2023-05-13T08:16:15;69019.28;;;24.28;100.00
5988;BME280;3021;51.000;6.980;2023-05-13T08:18:40;69145.50;;;25.39;100.00
5988;BME280;3021;51.000;6.980;2023-05-13T08:21:05;69277.81;;;26.58;100.00
5988;BME280;3021;51.000;6.980;2023-05-13T08:23:31;69318.09;;;26.91;100.00
5988;BME280;3021;51.000;6.980;2023-05-13T08:25:56;69389.59;;;27.56;100.00
5988;BME280;3021;51.000;6.980;2023-05-13T08:28:22;69398.28;;;27.62;100.00
5988;BME280;3021;51.000;6.980;2023-05-13T08:30:48;69409.41;;;27.71;100.00
5988;BME280;3021;51.000;6.980;2023-05-13T08:33:13;69458.59;;;28.15;100.00
5988;BME280;3021;51.000;6.980;2023-05-13T08:35:38;69566.63;;;29.14;100.00
5988;BME280;3021;51.000;6.980;2023-05-13T08:38:04;69642.16;;;29.78;100.00
5988;BME280;3021;51.000;6.980;2023-05-13T08:40:30;69684.38;;;30.15;100.00
5988;BME280;3021;51.000;6.980;2023-05-13T08:42:57;69775.78;;;30.93;100.00
5988;BME280;3021;51.000;6.980;2023-05-13T08:45:25;69935.50;;;32.33;100.00
5988;BME280;3021;51.000;6.980;2023-05-13T08:47:59;70066.63;;;33.51;100.00
5988;BME280;3021;51.000;6.980;2023-05-13T08:50:27;70363.19;;;36.13;100.00
5988;BME280;3021;51.000;6.980;2023-05-13T08:52:52;70404.31;;;36.46;100.00
5988;BME280;3021;51.000;6.980;2023-05-13T08:55:18;70796.88;;;39.89;95.08
5988;BME280;3021;51.000;6.980;2023-05-13T08:57:44;71136.38;;;42.86;80.45
5988;BME280;3021;51.000;6.980;2023-05-13T09:00:10;71374.72;;;44.96;74.23
5988;BME280;3021;51.000;6.980;2023-05-13T09:02:36;71416.66;;;45.30;70.17
5988;BME280;3021;51.000;6.980;2023-05-13T09:05:04;71155.91;;;43.03;71.26
5988;BME280;3021;51.000;6.980;2023-05-13T09:07:34;70850.00;;;40.36;74.55
5988;BME280;3021;51.000;6.980;2023-05-13T09:09:59;70539.13;;;37.62;78.04
5988;BME280;3021;51.000;6.980;2023-05-13T09:12:45;70221.78;;;34.84;83.20
5988;BME280;3021;51.000;6.980;2023-05-13T09:15:29;70492.66;;;37.24;84.67
5988;BME280;3021;51.000;6.980;2023-05-13T09:17:57;71105.16;;;42.61;72.14
5988;BME280;3021;51.000;6.980;2023-05-13T09:20:23;71443.31;;;45.53;68.59
5988;BME280;3021;51.000;6.980;2023-05-13T09:23:05;71683.13;;;47.64;64.42
5988;BME280;3021;51.000;6.980;2023-05-13T09:25:31;71776.06;;;48.42;60.14
5988;BME280;3021;51.000;6.980;2023-05-13T09:27:58;71754.19;;;48.26;58.96
5988;BME280;3021;51.000;6.980;2023-05-13T09:30:27;71648.19;;;47.34;57.83
5988;BME280;3021;51.000;6.980;2023-05-13T09:33:11;71698.47;;;47.75;61.68
5988;BME280;3021;51.000;6.980;2023-05-13T09:35:39;71827.09;;;48.89;57.46
5988;BME280;3021;51.000;6.980;2023-05-13T09:38:16;71716.84;;;47.91;55.58
5988;BME280;3021;51.000;6.980;2023-05-13T09:40:55;71680.69;;;47.59;53.74
5988;BME280;3021;51.000;6.980;2023-05-13T09:43:24;71627.38;;;47.13;55.41
5988;BME280;3021;51.000;6.980;2023-05-13T09:46:04;71617.97;;;47.07;56.93
5988;BME280;3021;51.000;6.980;2023-05-13T09:48:33;71567.06;;;46.63;54.49
5988;BME280;3021;51.000;6.980;2023-05-13T09:50:59;71458.09;;;45.66;58.50
5988;BME280;3021;51.000;6.980;2023-05-13T09:53:25;71423.19;;;45.35;56.38
5988;BME280;3021;51.000;6.980;2023-05-13T09:55:53;71319.59;;;44.43;58.05
5988;BME280;3021;51.000;6.980;2023-05-13T09:58:19;71215.53;;;43.52;55.42
5988;BME280;3021;51.000;6.980;2023-05-13T10:00:46;71099.69;;;42.51;60.11
5988;BME280;3021;51.000;6.980;2023-05-13T10:03:13;70937.94;;;41.13;58.80
5988;BME280;3021;51.000;6.980;2023-05-13T10:05:39;70916.69;;;40.94;62.34
5988;BME280;3021;51.000;6.980;2023-05-13T10:08:08;70767.97;;;39.64;65.78
5988;BME280;3021;51.000;6.980;2023-05-13T10:10:34;70860.53;;;40.42;65.66
5988;BME280;3021;51.000;6.980;2023-05-13T10:13:04;70694.84;;;39.00;65.08
5988;BME280;3021;51.000;6.980;2023-05-13T10:15:31;70719.53;;;39.19;67.33
5988;BME280;3021;51.000;6.980;2023-05-13T10:17:58;70675.88;;;38.81;70.70
5988;BME280;3021;51.000;6.980;2023-05-13T10:20:24;70711.88;;;39.13;68.02
5988;BME280;3021;51.000;6.980;2023-05-13T10:22:53;70786.84;;;39.81;67.44
5988;BME280;3021;51.000;6.980;2023-05-13T10:25:19;70841.66;;;40.26;67.39
5988;BME280;3021;51.000;6.980;2023-05-13T10:27:46;70867.03;;;40.48;64.53
5988;BME280;3021;51.000;6.980;2023-05-13T10:30:12;70690.69;;;38.97;66.16
5988;BME280;3021;51.000;6.980;2023-05-13T10:32:38;70583.34;;;38.00;66.07
5988;BME280;3021;51.000;6.980;2023-05-13T10:35:09;70345.97;;;35.93;66.99
5988;BME280;3021;51.000;6.980;2023-05-13T10:43:20;69557.41;;;28.96;97.06
5988;BME280;3021;51.000;6.980;2023-05-13T10:45:51;69478.41;;;28.30;100.00
5988;BME280;3021;51.000;6.980;2023-05-13T10:48:17;69441.97;;;27.95;100.00
5988;BME280;3021;51.000;6.980;2023-05-13T10:50:56;69399.34;;;27.60;100.00
5988;BME280;3021;51.000;6.980;2023-05-13T10:53:30;69378.97;;;27.45;100.00
5988;BME280;3021;51.000;6.980;2023-05-13T10:55:59;69359.50;;;27.25;100.00
5988;BME280;3021;51.000;6.980;2023-05-13T10:58:28;69324.41;;;26.94;100.00
5988;BME280;3021;51.000;6.980;2023-05-13T11:01:14;69317.84;;;26.86;100.00
5988;BME280;3021;51.000;6.980;2023-05-13T11:03:40;69304.41;;;26.74;100.00
5988;BME280;3021;51.000;6.980;2023-05-13T11:06:13;69327.81;;;26.95;100.00
5988;BME280;3021;51.000;6.980;2023-05-13T11:08:44;69310.47;;;26.84;100.00
5988;BME280;3021;51.000;6.980;2023-05-13T11:13:41;69199.66;;;25.82;100.00
5988;BME280;3021;51.000;6.980;2023-05-13T11:16:10;69133.59;;;25.24;100.00
5988;BME280;3021;51.000;6.980;2023-05-13T11:18:36;69093.25;;;24.88;100.00
5988;BME280;3021;51.000;6.980;2023-05-13T11:21:03;68988.09;;;23.95;100.00
5988;BME280;3021;51.000;6.980;2023-05-13T11:23:32;68918.03;;;23.34;100.00
5988;BME280;3021;51.000;6.980;2023-05-13T11:26:11;68810.03;;;22.38;100.00
5988;BME280;3021;51.000;6.980;2023-05-13T11:28:54;68675.31;;;21.19;100.00
5988;BME280;3021;51.000;6.980;2023-05-13T11:31:20;68555.88;;;20.14;100.00
5988;BME280;3021;51.000;6.980;2023-05-13T11:34:06;68491.25;;;19.57;100.00
5988;BME280;3021;51.000;6.980;2023-05-13T11:36:34;68495.78;;;19.58;100.00
5988;BME280;3021;51.000;6.980;2023-05-13T11:41:38;68504.63;;;19.68;100.00
5988;BME280;3021;51.000;6.980;2023-05-13T11:44:05;68529.09;;;19.90;100.00
5988;BME280;3021;51.000;6.980;2023-05-13T11:46:31;68532.72;;;19.96;100.00
5988;BME280;3021;51.000;6.980;2023-05-13T11:48:56;68525.59;;;19.87;100.00
5988;BME280;3021;51.000;6.980;2023-05-13T11:51:22;68531.44;;;19.92;100.00
5988;BME280;3021;51.000;6.980;2023-05-13T11:53:47;68533.19;;;19.94;100.00
5988;BME280;3021;51.000;6.980;2023-05-13T11:56:13;68562.72;;;20.17;100.00
5988;BME280;3021;51.000;6.980;2023-05-13T11:58:39;68571.47;;;20.25;100.00
5988;BME280;3021;51.000;6.980;2023-05-13T12:01:04;68620.56;;;20.71;100.00
5988;BME280;3021;51.000;6.980;2023-05-13T12:03:29;68653.75;;;21.00;100.00
5988;BME280;3021;51.000;6.980;2023-05-13T12:06:04;68663.78;;;21.12;100.00
5988;BME280;3021;51.000;6.980;2023-05-13T12:08:30;68628.13;;;20.78;100.00
5988;BME280;3021;51.000;6.980;2023-05-13T12:10:58;68681.28;;;21.27;100.00
5988;BME280;3021;51.000;6.980;2023-05-13T12:13:24;68749.97;;;21.85;100.00
5988;BME280;3021;51.000;6.980;2023-05-13T12:15:49;68775.72;;;22.10;100.00
5988;BME280;3021;51.000;6.980;2023-05-13T12:18:15;68761.03;;;21.95;100.00
5988;BME280;3021;51.000;6.980;2023-05-13T12:20:40;68775.72;;;22.10;100.00
5988;BME280;3021;51.000;6.980;2023-05-13T12:23:08;68816.00;;;22.46;100.00
5988;BME280;3021;51.000;6.980;2023-05-13T12:25:46;68824.06;;;22.51;100.00
5988;BME280;3021;51.000;6.980;2023-05-13T12:28:25;68827.69;;;22.56;100.00
5988;BME280;3021;51.000;6.980;2023-05-13T12:30:54;68825.34;;;22.54;100.00
5988;BME280;3021;51.000;6.980;2023-05-13T12:33:27;68791.94;;;22.22;100.00
5988;BME280;3021;51.000;6.980;2023-05-13T12:38:58;68840.97;;;22.66;100.00
5988;BME280;3021;51.000;6.980;2023-05-13T12:41:25;68842.72;;;22.67;100.00
5988;BME280;3021;51.000;6.980;2023-05-13T12:43:59;68845.63;;;22.70;100.00
5988;BME280;3021;51.000;6.980;2023-05-13T12:46:25;68837.00;;;22.65;100.00
5988;BME280;3021;51.000;6.980;2023-05-13T12:48:53;68848.56;;;22.72;100.00
5988;BME280;3021;51.000;6.980;2023-05-13T12:51:18;68862.66;;;22.87;100.00
5988;BME280;3021;51.000;6.980;2023-05-13T12:53:44;68886.75;;;23.11;100.00
5988;BME280;3021;51.000;6.980;2023-05-13T12:56:09;68943.34;;;23.61;100.00
5988;BME280;3021;51.000;6.980;2023-05-13T12:58:34;69023.13;;;24.26;100.00
5988;BME280;3021;51.000;6.980;2023-05-13T13:01:00;69092.22;;;24.90;100.00
5988;BME280;3021;51.000;6.980;2023-05-13T13:03:25;69083.44;;;24.82;100.00
5988;BME280;3021;51.000;6.980;2023-05-13T13:05:50;69039.59;;;24.43;100.00
5988;BME280;3021;51.000;6.980;2023-05-13T13:08:16;68993.34;;;24.00;100.00
5988;BME280;3021;51.000;6.980;2023-05-13T13:10:41;68771.53;;;22.04;100.00
5988;BME280;3021;51.000;6.980;2023-05-13T13:13:06;68571.47;;;20.25;100.00
5988;BME280;3021;51.000;6.980;2023-05-13T13:15:32;68428.97;;;19.02;100.00
5988;BME280;3021;51.000;6.980;2023-05-13T13:17:57;68309.16;;;17.95;100.00
5988;BME280;3021;51.000;6.980;2023-05-13T13:20:22;68244.59;;;17.38;100.00
5988;BME280;3021;51.000;6.980;2023-05-13T13:22:48;68267.84;;;17.59;100.00
5988;BME280;3021;51.000;6.980;2023-05-13T13:25:13;68305.78;;;17.95;100.00
5988;BME280;3021;51.000;6.980;2023-05-13T13:27:38;68426.06;;;18.99;100.00
5988;BME280;3021;51.000;6.980;2023-05-13T13:30:04;68498.81;;;19.63;100.00